sensor_id;sensor_type;location;lat;lon;timestamp;pressure;altitude;pressure_sealevel;temperature;humidity
18900;BME280;9582;52.018;6.306;2023-12-22T00:01:42;100342.66;;;5.66;100.00
18900;BME280;9582;52.018;6.306;2023-12-22T00:04:09;100340.94;;;5.65;100.00
18900;BME280;9582;52.018;6.306;2023-12-22T00:06:37;100328.84;;;5.66;100.00
18900;BME280;9582;52.018;6.306;2023-12-22T00:09:04;100341.72;;;5.67;100.00
18900;BME280;9582;52.018;6.306;2023-12-22T00:11:30;100367.56;;;5.70;100.00
18900;BME280;9582;52.018;6.306;2023-12-22T00:13:57;100382.91;;;5.78;100.00
18900;BME280;9582;52.018;6.306;2023-12-22T00:16:23;100393.19;;;5.81;100.00
18900;BME280;9582;52.018;6.306;2023-12-22T00:18:50;100407.81;;;5.83;100.00
18900;BME280;9582;52.018;6.306;2023-12-22T00:21:17;100402.56;;;5.87;100.00
18900;BME280;9582;52.018;6.306;2023-12-22T00:23:45;100402.41;;;5.91;100.00
18900;BME280;9582;52.018;6.306;2023-12-22T00:26:12;100411.91;;;5.91;100.00
18900;BME280;9582;52.018;6.306;2023-12-22T00:28:40;100419.78;;;5.89;100.00
18900;BME280;9582;52.018;6.306;2023-12-22T00:31:07;100430.16;;;5.89;100.00
18900;BME280;9582;52.018;6.306;2023-12-22T00:33:33;100431.59;;;5.98;100.00
18900;BME280;9582;52.018;6.306;2023-12-22T00:36:00;100459.03;;;6.05;100.00
18900;BME280;9582;52.018;6.306;2023-12-22T00:38:27;100477.28;;;6.03;100.00
18900;BME280;9582;52.018;6.306;2023-12-22T00:40:55;100473.84;;;6.01;100.00
18900;BME280;9582;52.018;6.306;2023-12-22T00:43:22;100470.34;;;6.04;100.00
18900;BME280;9582;52.018;6.306;2023-12-22T00:45:48;100481.41;;;6.09;100.00
18900;BME280;9582;52.018;6.306;2023-12-22T00:48:15;100480.22;;;6.19;100.00
18900;BME280;9582;52.018;6.306;2023-12-22T00:50:42;100488.84;;;6.19;100.00
18900;BME280;9582;52.018;6.306;2023-12-22T00:53:08;100487.97;;;6.20;100.00
18900;BME280;9582;52.018;6.306;2023-12-22T00:55:35;100503.34;;;6.26;100.00
18900;BME280;9582;52.018;6.306;2023-12-22T00:58:03;100505.81;;;6.29;100.00
18900;BME280;9582;52.018;6.306;2023-12-22T01:00:30;100512.63;;;6.33;100.00
18900;BME280;9582;52.018;6.306;2023-12-22T01:02:56;100515.88;;;6.40;100.00
18900;BME280;9582;52.018;6.306;2023-12-22T01:05:23;100525.41;;;6.39;100.00
18900;BME280;9582;52.018;6.306;2023-12-22T01:07:49;100521.97;;;6.39;100.00
18900;BME280;9582;52.018;6.306;2023-12-22T01:10:16;100518.47;;;6.40;100.00
18900;BME280;9582;52.018;6.306;2023-12-22T01:12:43;100524.31;;;6.47;100.00
18900;BME280;9582;52.018;6.306;2023-12-22T01:15:11;100517.56;;;6.41;100.00
18900;BME280;9582;52.018;6.306;2023-12-22T01:17:38;100536.47;;;6.46;100.00
18900;BME280;9582;52.018;6.306;2023-12-22T01:20:05;100546.03;;;6.44;100.00
18900;BME280;9582;52.018;6.306;2023-12-22T01:22:32;100554.75;;;6.43;100.00
18900;BME280;9582;52.018;6.306;2023-12-22T01:24:59;100554.78;;;6.42;100.00
18900;BME280;9582;52.018;6.306;2023-12-22T01:27:26;100543.50;;;6.43;100.00
18900;BME280;9582;52.018;6.306;2023-12-22T01:29:53;100557.44;;;6.40;100.00
18900;BME280;9582;52.018;6.306;2023-12-22T01:32:21;100573.13;;;6.37;100.00
18900;BME280;9582;52.018;6.306;2023-12-22T01:34:48;100578.59;;;6.28;100.00
18900;BME280;9582;52.018;6.306;2023-12-22T01:37:14;100591.66;;;6.25;100.00
18900;BME280;9582;52.018;6.306;2023-12-22T01:39:41;100592.75;;;6.18;100.00
18900;BME280;9582;52.018;6.306;2023-12-22T01:42:07;100591.03;;;6.17;100.00
18900;BME280;9582;52.018;6.306;2023-12-22T01:44:34;100601.53;;;6.14;100.00
18900;BME280;9582;52.018;6.306;2023-12-22T01:47:01;100619.78;;;6.11;100.00
18900;BME280;9582;52.018;6.306;2023-12-22T01:49:29;100616.31;;;6.12;100.00
18900;BME280;9582;52.018;6.306;2023-12-22T01:51:56;100626.72;;;6.10;100.00
18900;BME280;9582;52.018;6.306;2023-12-22T01:54:23;100617.16;;;6.12;100.00
18900;BME280;9582;52.018;6.306;2023-12-22T01:56:50;100620.56;;;6.13;100.00
18900;BME280;9582;52.018;6.306;2023-12-22T01:59:17;100634.47;;;6.12;100.00
18900;BME280;9582;52.018;6.306;2023-12-22T02:01:43;100615.44;;;6.11;100.00
18900;BME280;9582;52.018;6.306;2023-12-22T02:04:11;100613.69;;;6.12;100.00
18900;BME280;9582;52.018;6.306;2023-12-22T02:06:40;100617.09;;;6.14;100.00
18900;BME280;9582;52.018;6.306;2023-12-22T02:09:07;100623.09;;;6.16;100.00
18900;BME280;9582;52.018;6.306;2023-12-22T02:11:35;100622.28;;;6.14;100.00
18900;BME280;9582;52.018;6.306;2023-12-22T02:14:01;100627.53;;;6.12;100.00
18900;BME280;9582;52.018;6.306;2023-12-22T02:16:32;100649.19;;;6.11;100.00
18900;BME280;9582;52.018;6.306;2023-12-22T02:19:10;100646.69;;;6.08;100.00
18900;BME280;9582;52.018;6.306;2023-12-22T02:22:00;100647.47;;;6.10;100.00
18900;BME280;9582;52.018;6.306;2023-12-22T02:24:28;100666.47;;;6.12;100.00
18900;BME280;9582;52.018;6.306;2023-12-22T02:27:01;100699.09;;;6.21;100.00
18900;BME280;9582;52.018;6.306;2023-12-22T02:29:31;100713.19;;;6.12;100.00
18900;BME280;9582;52.018;6.306;2023-12-22T02:32:02;100730.69;;;6.04;100.00
18900;BME280;9582;52.018;6.306;2023-12-22T02:34:35;100719.03;;;5.90;100.00
18900;BME280;9582;52.018;6.306;2023-12-22T02:37:05;100714.22;;;5.73;100.00
18900;BME280;9582;52.018;6.306;2023-12-22T02:39:35;100678.50;;;5.52;100.00
18900;BME280;9582;52.018;6.306;2023-12-22T02:42:03;100644.34;;;5.36;100.00
18900;BME280;9582;52.018;6.306;2023-12-22T02:44:31;100594.41;;;5.28;100.00
18900;BME280;9582;52.018;6.306;2023-12-22T02:46:57;100541.75;;;5.28;100.00
18900;BME280;9582;52.018;6.306;2023-12-22T02:49:24;100538.38;;;5.24;100.00
18900;BME280;9582;52.018;6.306;2023-12-22T02:51:51;100463.38;;;5.18;100.00
18900;BME280;9582;52.018;6.306;2023-12-22T02:54:17;100438.53;;;5.11;100.00
18900;BME280;9582;52.018;6.306;2023-12-22T02:56:46;100415.34;;;5.06;100.00
18900;BME280;9582;52.018;6.306;2023-12-22T02:59:13;100383.50;;;5.03;100.00
18900;BME280;9582;52.018;6.306;2023-12-22T03:01:40;100368.88;;;5.00;100.00
18900;BME280;9582;52.018;6.306;2023-12-22T03:04:06;100355.06;;;5.00;100.00
18900;BME280;9582;52.018;6.306;2023-12-22T03:06:33;100401.72;;;5.00;100.00
18900;BME280;9582;52.018;6.306;2023-12-22T03:08:59;100421.53;;;5.02;100.00
18900;BME280;9582;52.018;6.306;2023-12-22T03:11:26;100401.63;;;5.03;100.00
18900;BME280;9582;52.018;6.306;2023-12-22T03:13:54;100421.41;;;5.05;100.00
18900;BME280;9582;52.018;6.306;2023-12-22T03:16:20;100456.72;;;5.09;100.00
18900;BME280;9582;52.018;6.306;2023-12-22T03:18:47;100392.44;;;5.22;100.00
18900;BME280;9582;52.018;6.306;2023-12-22T03:21:16;100371.41;;;5.31;100.00
18900;BME280;9582;52.018;6.306;2023-12-22T03:23:44;100342.72;;;5.37;100.00
18900;BME280;9582;52.018;6.306;2023-12-22T03:26:10;100329.94;;;5.31;100.00
18900;BME280;9582;52.018;6.306;2023-12-22T03:28:37;100351.88;;;5.21;100.00
18900;BME280;9582;52.018;6.306;2023-12-22T03:31:05;100389.22;;;5.14;100.00
18900;BME280;9582;52.018;6.306;2023-12-22T03:33:32;100309.88;;;5.10;100.00
18900;BME280;9582;52.018;6.306;2023-12-22T03:35:59;100322.94;;;5.07;100.00
18900;BME280;9582;52.018;6.306;2023-12-22T03:38:26;100387.03;;;5.00;100.00
18900;BME280;9582;52.018;6.306;2023-12-22T03:40:52;100302.22;;;5.05;100.00
18900;BME280;9582;52.018;6.306;2023-12-22T03:43:19;100314.28;;;5.08;100.00
18900;BME280;9582;52.018;6.306;2023-12-22T03:45:45;100306.69;;;5.02;100.00
18900;BME280;9582;52.018;6.306;2023-12-22T03:48:13;100303.25;;;5.00;100.00
18900;BME280;9582;52.018;6.306;2023-12-22T03:50:40;100258.25;;;5.04;100.00
18900;BME280;9582;52.018;6.306;2023-12-22T03:53:07;100355.53;;;5.14;100.00
18900;BME280;9582;52.018;6.306;2023-12-22T03:55:33;100343.41;;;5.14;100.00
18900;BME280;9582;52.018;6.306;2023-12-22T03:58:00;100318.44;;;5.12;100.00
18900;BME280;9582;52.018;6.306;2023-12-22T04:00:27;100322.84;;;5.10;100.00
18900;BME280;9582;52.018;6.306;2023-12-22T04:02:54;100316.75;;;5.11;100.00
18900;BME280;9582;52.018;6.306;2023-12-22T04:05:22;100316.13;;;5.03;100.00
18900;BME280;9582;52.018;6.306;2023-12-22T04:07:49;100311.94;;;4.99;100.00
18900;BME280;9582;52.018;6.306;2023-12-22T04:10:16;100344.78;;;4.98;100.00
18900;BME280;9582;52.018;6.306;2023-12-22T04:12:43;100337.03;;;4.97;100.00
18900;BME280;9582;52.018;6.306;2023-12-22T04:15:09;100337.09;;;4.95;100.00
18900;BME280;9582;52.018;6.306;2023-12-22T04:17:36;100350.94;;;4.94;100.00
18900;BME280;9582;52.018;6.306;2023-12-22T04:20:04;100372.59;;;4.92;100.00
18900;BME280;9582;52.018;6.306;2023-12-22T04:22:32;100390.81;;;4.89;100.00
18900;BME280;9582;52.018;6.306;2023-12-22T04:24:59;100393.47;;;4.86;100.00
18900;BME280;9582;52.018;6.306;2023-12-22T04:27:25;100384.91;;;4.84;100.00
18900;BME280;9582;52.018;6.306;2023-12-22T04:29:52;100376.97;;;4.90;100.00
18900;BME280;9582;52.018;6.306;2023-12-22T04:32:18;100363.09;;;4.92;100.00
18900;BME280;9582;52.018;6.306;2023-12-22T04:34:45;100371.66;;;4.94;100.00
18900;BME280;9582;52.018;6.306;2023-12-22T04:37:12;100337.94;;;4.96;100.00
18900;BME280;9582;52.018;6.306;2023-12-22T04:39:40;100346.56;;;4.96;100.00
18900;BME280;9582;52.018;6.306;2023-12-22T04:42:06;100341.31;;;4.98;100.00
18900;BME280;9582;52.018;6.306;2023-12-22T04:44:33;100339.53;;;5.00;100.00
18900;BME280;9582;52.018;6.306;2023-12-22T04:46:59;100346.44;;;5.01;100.00
18900;BME280;9582;52.018;6.306;2023-12-22T04:49:26;100358.31;;;5.08;100.00
18900;BME280;9582;52.018;6.306;2023-12-22T04:51:53;100364.41;;;5.05;100.00
18900;BME280;9582;52.018;6.306;2023-12-22T04:54:20;100364.38;;;5.07;100.00
18900;BME280;9582;52.018;6.306;2023-12-22T04:56:47;100371.91;;;5.14;100.00
18900;BME280;9582;52.018;6.306;2023-12-22T04:59:14;100372.59;;;5.21;100.00
18900;BME280;9582;52.018;6.306;2023-12-22T05:01:41;100377.63;;;5.25;100.00
18900;BME280;9582;52.018;6.306;2023-12-22T05:04:08;100327.44;;;5.28;100.00
18900;BME280;9582;52.018;6.306;2023-12-22T05:06:34;100326.28;;;5.38;100.00
18900;BME280;9582;52.018;6.306;2023-12-22T05:09:01;100353.59;;;5.48;100.00
18900;BME280;9582;52.018;6.306;2023-12-22T05:11:29;100350.56;;;5.62;100.00
18900;BME280;9582;52.018;6.306;2023-12-22T05:13:57;100365.91;;;5.69;100.00
18900;BME280;9582;52.018;6.306;2023-12-22T05:16:23;100378.88;;;5.69;100.00
18900;BME280;9582;52.018;6.306;2023-12-22T05:18:50;100364.09;;;5.71;100.00
18900;BME280;9582;52.018;6.306;2023-12-22T05:21:17;100374.31;;;5.76;100.00
18900;BME280;9582;52.018;6.306;2023-12-22T05:23:43;100374.13;;;5.82;100.00
18900;BME280;9582;52.018;6.306;2023-12-22T05:26:10;100403.47;;;5.84;100.00
18900;BME280;9582;52.018;6.306;2023-12-22T05:28:42;100385.19;;;5.89;100.00
18900;BME280;9582;52.018;6.306;2023-12-22T05:31:10;100366.13;;;5.90;100.00
18900;BME280;9582;52.018;6.306;2023-12-22T05:33:36;100387.72;;;5.90;100.00
18900;BME280;9582;52.018;6.306;2023-12-22T05:36:04;100378.16;;;5.92;100.00
18900;BME280;9582;52.018;6.306;2023-12-22T05:38:30;100378.19;;;5.91;100.00
18900;BME280;9582;52.018;6.306;2023-12-22T05:40:57;100373.00;;;5.91;100.00
18900;BME280;9582;52.018;6.306;2023-12-22T05:43:24;100375.47;;;5.95;100.00
18900;BME280;9582;52.018;6.306;2023-12-22T05:45:50;100386.66;;;5.96;100.00
18900;BME280;9582;52.018;6.306;2023-12-22T05:48:18;100377.97;;;5.98;100.00
18900;BME280;9582;52.018;6.306;2023-12-22T05:50:47;100361.63;;;5.95;100.00
18900;BME280;9582;52.018;6.306;2023-12-22T05:53:13;100350.34;;;5.96;100.00
18900;BME280;9582;52.018;6.306;2023-12-22T05:55:40;100360.63;;;5.99;100.00
18900;BME280;9582;52.018;6.306;2023-12-22T05:58:07;100345.78;;;6.04;100.00
18900;BME280;9582;52.018;6.306;2023-12-22T06:00:34;100342.31;;;6.03;100.00
18900;BME280;9582;52.018;6.306;2023-12-22T06:03:01;100331.03;;;6.04;100.00
18900;BME280;9582;52.018;6.306;2023-12-22T06:05:29;100346.69;;;6.01;100.00
18900;BME280;9582;52.018;6.306;2023-12-22T06:07:56;100355.22;;;6.05;100.00
18900;BME280;9582;52.018;6.306;2023-12-22T06:10:23;100360.53;;;6.02;100.00
18900;BME280;9582;52.018;6.306;2023-12-22T06:12:49;100337.34;;;5.97;100.00
18900;BME280;9582;52.018;6.306;2023-12-22T06:15:16;100338.28;;;5.95;100.00
18900;BME280;9582;52.018;6.306;2023-12-22T06:17:43;100338.41;;;5.90;100.00
18900;BME280;9582;52.018;6.306;2023-12-22T06:20:10;100377.34;;;5.90;100.00
18900;BME280;9582;52.018;6.306;2023-12-22T06:22:38;100349.72;;;5.89;100.00
18900;BME280;9582;52.018;6.306;2023-12-22T06:25:05;100354.94;;;5.88;100.00
18900;BME280;9582;52.018;6.306;2023-12-22T06:27:32;100342.09;;;5.83;100.00
18900;BME280;9582;52.018;6.306;2023-12-22T06:29:59;100343.06;;;5.80;100.00
18900;BME280;9582;52.018;6.306;2023-12-22T06:32:26;100328.44;;;5.78;100.00
18900;BME280;9582;52.018;6.306;2023-12-22T06:34:52;100327.59;;;5.77;100.00
18900;BME280;9582;52.018;6.306;2023-12-22T06:37:19;100330.19;;;5.77;100.00
18900;BME280;9582;52.018;6.306;2023-12-22T06:39:47;100354.41;;;5.76;100.00
18900;BME280;9582;52.018;6.306;2023-12-22T06:42:13;100349.13;;;5.79;100.00
18900;BME280;9582;52.018;6.306;2023-12-22T06:44:41;100335.28;;;5.80;100.00
18900;BME280;9582;52.018;6.306;2023-12-22T06:47:08;100342.13;;;5.81;100.00
18900;BME280;9582;52.018;6.306;2023-12-22T06:49:35;100417.38;;;5.81;100.00
18900;BME280;9582;52.018;6.306;2023-12-22T06:52:02;100383.59;;;5.83;100.00
18900;BME280;9582;52.018;6.306;2023-12-22T06:54:29;100351.59;;;5.84;100.00
18900;BME280;9582;52.018;6.306;2023-12-22T06:56:56;100347.22;;;5.84;100.00
18900;BME280;9582;52.018;6.306;2023-12-22T06:59:22;100331.59;;;5.88;100.00
18900;BME280;9582;52.018;6.306;2023-12-22T07:01:49;100323.78;;;5.89;100.00
18900;BME280;9582;52.018;6.306;2023-12-22T07:04:15;100311.56;;;5.93;100.00
18900;BME280;9582;52.018;6.306;2023-12-22T07:06:42;100280.28;;;5.96;100.00
18900;BME280;9582;52.018;6.306;2023-12-22T07:09:27;100350.75;;;5.83;100.00
18900;BME280;9582;52.018;6.306;2023-12-22T07:11:54;100410.28;;;5.60;100.00
18900;BME280;9582;52.018;6.306;2023-12-22T07:14:22;100357.22;;;5.43;100.00
18900;BME280;9582;52.018;6.306;2023-12-22T07:16:49;100308.97;;;5.39;100.00
18900;BME280;9582;52.018;6.306;2023-12-22T07:19:16;100292.78;;;5.31;100.00
18900;BME280;9582;52.018;6.306;2023-12-22T07:21:43;100282.59;;;5.26;100.00
18900;BME280;9582;52.018;6.306;2023-12-22T07:24:09;100300.91;;;5.20;100.00
18900;BME280;9582;52.018;6.306;2023-12-22T07:26:36;100289.84;;;5.15;100.00
18900;BME280;9582;52.018;6.306;2023-12-22T07:29:02;100313.06;;;5.18;100.00
18900;BME280;9582;52.018;6.306;2023-12-22T07:31:30;100280.09;;;5.23;100.00
18900;BME280;9582;52.018;6.306;2023-12-22T07:33:57;100325.59;;;5.32;100.00
18900;BME280;9582;52.018;6.306;2023-12-22T07:36:23;100304.50;;;5.44;100.00
18900;BME280;9582;52.018;6.306;2023-12-22T07:38:50;100320.38;;;5.59;100.00
18900;BME280;9582;52.018;6.306;2023-12-22T07:41:17;100347.66;;;5.72;100.00
18900;BME280;9582;52.018;6.306;2023-12-22T07:43:43;100362.78;;;5.86;100.00
18900;BME280;9582;52.018;6.306;2023-12-22T07:46:16;100370.28;;;5.95;100.00
18900;BME280;9582;52.018;6.306;2023-12-22T07:48:44;100322.44;;;6.02;100.00
18900;BME280;9582;52.018;6.306;2023-12-22T07:51:11;100251.31;;;6.08;100.00
18900;BME280;9582;52.018;6.306;2023-12-22T07:53:38;100244.22;;;6.13;100.00
18900;BME280;9582;52.018;6.306;2023-12-22T07:56:05;100268.97;;;6.23;100.00
18900;BME280;9582;52.018;6.306;2023-12-22T07:58:32;100311.00;;;6.32;100.00
18900;BME280;9582;52.018;6.306;2023-12-22T08:00:59;100294.19;;;6.43;100.00
18900;BME280;9582;52.018;6.306;2023-12-22T08:03:25;100298.97;;;6.55;100.00
18900;BME280;9582;52.018;6.306;2023-12-22T08:05:54;100289.81;;;6.68;100.00
18900;BME280;9582;52.018;6.306;2023-12-22T08:08:21;100305.94;;;6.76;100.00
18900;BME280;9582;52.018;6.306;2023-12-22T08:10:48;100310.72;;;6.86;100.00
18900;BME280;9582;52.018;6.306;2023-12-22T08:13:14;100300.06;;;6.94;100.00
18900;BME280;9582;52.018;6.306;2023-12-22T08:15:43;100283.19;;;7.04;100.00
18900;BME280;9582;52.018;6.306;2023-12-22T08:18:09;100286.47;;;7.09;100.00
18900;BME280;9582;52.018;6.306;2023-12-22T08:20:36;100293.25;;;7.13;100.00
18900;BME280;9582;52.018;6.306;2023-12-22T08:23:04;100279.16;;;7.19;100.00
18900;BME280;9582;52.018;6.306;2023-12-22T08:25:31;100287.69;;;7.22;100.00
18900;BME280;9582;52.018;6.306;2023-12-22T08:27:58;100272.69;;;7.29;100.00
18900;BME280;9582;52.018;6.306;2023-12-22T08:30:24;100258.59;;;7.34;100.00
18900;BME280;9582;52.018;6.306;2023-12-22T08:32:51;100273.78;;;7.45;100.00
18900;BME280;9582;52.018;6.306;2023-12-22T08:35:19;100301.34;;;7.49;100.00
18900;BME280;9582;52.018;6.306;2023-12-22T08:37:45;100289.06;;;7.52;100.00
18900;BME280;9582;52.018;6.306;2023-12-22T08:40:13;100314.34;;;7.49;100.00
18900;BME280;9582;52.018;6.306;2023-12-22T08:42:40;100303.53;;;7.38;100.00
18900;BME280;9582;52.018;6.306;2023-12-22T08:45:07;100302.91;;;7.31;100.00
18900;BME280;9582;52.018;6.306;2023-12-22T08:47:34;100277.88;;;7.29;100.00
18900;BME280;9582;52.018;6.306;2023-12-22T08:50:00;100266.81;;;7.24;100.00
18900;BME280;9582;52.018;6.306;2023-12-22T08:52:29;100270.44;;;7.20;100.00
18900;BME280;9582;52.018;6.306;2023-12-22T08:54:56;100272.34;;;7.16;100.00
18900;BME280;9582;52.018;6.306;2023-12-22T08:57:24;100279.28;;;7.16;100.00
18900;BME280;9582;52.018;6.306;2023-12-22T08:59:52;100273.97;;;7.19;100.00
18900;BME280;9582;52.018;6.306;2023-12-22T09:02:19;100280.91;;;7.18;100.00
18900;BME280;9582;52.018;6.306;2023-12-22T09:04:46;100266.16;;;7.19;100.00
18900;BME280;9582;52.018;6.306;2023-12-22T09:07:13;100268.00;;;7.17;100.00
18900;BME280;9582;52.018;6.306;2023-12-22T09:09:39;100257.72;;;7.14;100.00
18900;BME280;9582;52.018;6.306;2023-12-22T09:12:06;100261.31;;;7.10;100.00
18900;BME280;9582;52.018;6.306;2023-12-22T09:14:34;100256.97;;;7.10;100.00
18900;BME280;9582;52.018;6.306;2023-12-22T09:17:01;100252.66;;;7.09;100.00
18900;BME280;9582;52.018;6.306;2023-12-22T09:19:27;100235.44;;;7.07;100.00
18900;BME280;9582;52.018;6.306;2023-12-22T09:21:54;100226.88;;;7.05;100.00
18900;BME280;9582;52.018;6.306;2023-12-22T09:24:21;100222.53;;;7.05;100.00
18900;BME280;9582;52.018;6.306;2023-12-22T09:26:50;100266.63;;;7.07;100.00
18900;BME280;9582;52.018;6.306;2023-12-22T09:29:17;100280.50;;;7.07;100.00
18900;BME280;9582;52.018;6.306;2023-12-22T09:31:45;100382.75;;;7.06;100.00
18900;BME280;9582;52.018;6.306;2023-12-22T09:34:12;100350.59;;;7.09;100.00
18900;BME280;9582;52.018;6.306;2023-12-22T09:36:39;100314.91;;;7.14;100.00
18900;BME280;9582;52.018;6.306;2023-12-22T09:39:05;100322.16;;;7.27;100.00
18900;BME280;9582;52.018;6.306;2023-12-22T09:41:32;100296.63;;;7.37;100.00
18900;BME280;9582;52.018;6.306;2023-12-22T09:43:59;100295.47;;;7.44;100.00
18900;BME280;9582;52.018;6.306;2023-12-22T09:46:27;100261.34;;;7.51;100.00
18900;BME280;9582;52.018;6.306;2023-12-22T09:48:55;100250.66;;;7.59;100.00
18900;BME280;9582;52.018;6.306;2023-12-22T09:51:22;100274.72;;;7.64;100.00
18900;BME280;9582;52.018;6.306;2023-12-22T09:53:50;100250.97;;;7.72;100.00
18900;BME280;9582;52.018;6.306;2023-12-22T09:56:18;100256.81;;;7.77;100.00
18900;BME280;9582;52.018;6.306;2023-12-22T09:58:45;100254.69;;;7.86;100.00
18900;BME280;9582;52.018;6.306;2023-12-22T10:01:13;100253.44;;;7.95;100.00
18900;BME280;9582;52.018;6.306;2023-12-22T10:03:41;100279.34;;;7.98;100.00
18900;BME280;9582;52.018;6.306;2023-12-22T10:06:11;100292.03;;;8.05;100.00
18900;BME280;9582;52.018;6.306;2023-12-22T10:08:38;100307.53;;;8.08;100.00
18900;BME280;9582;52.018;6.306;2023-12-22T10:11:06;100317.81;;;8.11;100.00
18900;BME280;9582;52.018;6.306;2023-12-22T10:13:36;100306.50;;;8.12;100.00
18900;BME280;9582;52.018;6.306;2023-12-22T10:16:04;100289.69;;;8.20;100.00
18900;BME280;9582;52.018;6.306;2023-12-22T10:18:32;100292.06;;;8.24;100.00
18900;BME280;9582;52.018;6.306;2023-12-22T10:20:59;100296.16;;;8.31;100.00
18900;BME280;9582;52.018;6.306;2023-12-22T10:23:27;100307.28;;;8.35;100.00
18900;BME280;9582;52.018;6.306;2023-12-22T10:25:57;100322.97;;;8.33;100.00
18900;BME280;9582;52.018;6.306;2023-12-22T10:28:23;100329.28;;;8.28;100.00
18900;BME280;9582;52.018;6.306;2023-12-22T10:30:53;100346.72;;;8.26;100.00
18900;BME280;9582;52.018;6.306;2023-12-22T10:33:21;100327.97;;;8.18;100.00
18900;BME280;9582;52.018;6.306;2023-12-22T10:35:48;100346.44;;;8.11;100.00
18900;BME280;9582;52.018;6.306;2023-12-22T10:38:18;100324.97;;;8.06;100.00
18900;BME280;9582;52.018;6.306;2023-12-22T10:40:46;100318.31;;;7.99;100.00
18900;BME280;9582;52.018;6.306;2023-12-22T10:43:13;100320.34;;;7.93;100.00
18900;BME280;9582;52.018;6.306;2023-12-22T10:45:41;100287.63;;;7.87;100.00
18900;BME280;9582;52.018;6.306;2023-12-22T10:48:07;100251.31;;;7.84;100.00
18900;BME280;9582;52.018;6.306;2023-12-22T10:50:34;100245.25;;;7.84;100.00
18900;BME280;9582;52.018;6.306;2023-12-22T10:53:01;100269.53;;;7.84;100.00
18900;BME280;9582;52.018;6.306;2023-12-22T10:55:27;100273.03;;;7.83;100.00
18900;BME280;9582;52.018;6.306;2023-12-22T10:57:55;100258.25;;;7.84;100.00
18900;BME280;9582;52.018;6.306;2023-12-22T11:00:23;100251.19;;;7.87;100.00
18900;BME280;9582;52.018;6.306;2023-12-22T11:02:55;100272.69;;;7.91;100.00
18900;BME280;9582;52.018;6.306;2023-12-22T11:05:26;100274.06;;;7.99;100.00
18900;BME280;9582;52.018;6.306;2023-12-22T11:07:55;100259.75;;;8.09;100.00
18900;BME280;9582;52.018;6.306;2023-12-22T11:10:22;100280.97;;;8.21;100.00
18900;BME280;9582;52.018;6.306;2023-12-22T11:12:50;100183.25;;;8.32;100.00
18900;BME280;9582;52.018;6.306;2023-12-22T11:15:19;100254.25;;;8.36;100.00
18900;BME280;9582;52.018;6.306;2023-12-22T11:17:48;100272.50;;;8.36;100.00
18900;BME280;9582;52.018;6.306;2023-12-22T11:20:16;100256.81;;;8.37;100.00
18900;BME280;9582;52.018;6.306;2023-12-22T11:22:44;100265.47;;;8.38;100.00
18900;BME280;9582;52.018;6.306;2023-12-22T11:25:11;100254.06;;;8.40;100.00
18900;BME280;9582;52.018;6.306;2023-12-22T11:27:40;100265.25;;;8.42;100.00
18900;BME280;9582;52.018;6.306;2023-12-22T11:30:09;100264.41;;;8.42;100.00
18900;BME280;9582;52.018;6.306;2023-12-22T11:32:39;100268.75;;;8.41;100.00
18900;BME280;9582;52.018;6.306;2023-12-22T11:35:06;100312.28;;;8.39;100.00
18900;BME280;9582;52.018;6.306;2023-12-22T11:37:35;100321.84;;;8.39;100.00
18900;BME280;9582;52.018;6.306;2023-12-22T11:40:02;100323.75;;;8.15;100.00
18900;BME280;9582;52.018;6.306;2023-12-22T11:42:34;100346.41;;;7.28;100.00
18900;BME280;9582;52.018;6.306;2023-12-22T11:45:02;100358.19;;;6.91;100.00
18900;BME280;9582;52.018;6.306;2023-12-22T11:47:29;100372.59;;;6.77;100.00
18900;BME280;9582;52.018;6.306;2023-12-22T11:49:57;100374.91;;;6.84;100.00
18900;BME280;9582;52.018;6.306;2023-12-22T11:52:27;100323.34;;;6.97;100.00
18900;BME280;9582;52.018;6.306;2023-12-22T11:54:55;100349.47;;;7.16;100.00
18900;BME280;9582;52.018;6.306;2023-12-22T11:57:40;100334.25;;;7.28;100.00
18900;BME280;9582;52.018;6.306;2023-12-22T12:00:09;100334.53;;;7.42;100.00
18900;BME280;9582;52.018;6.306;2023-12-22T12:02:57;100322.63;;;7.59;100.00
18900;BME280;9582;52.018;6.306;2023-12-22T12:05:25;100310.81;;;7.72;100.00
18900;BME280;9582;52.018;6.306;2023-12-22T12:07:51;100314.72;;;7.82;100.00
18900;BME280;9582;52.018;6.306;2023-12-22T12:10:49;100312.38;;;7.96;100.00
18900;BME280;9582;52.018;6.306;2023-12-22T12:13:22;100330.97;;;8.08;100.00
18900;BME280;9582;52.018;6.306;2023-12-22T12:15:50;100312.38;;;8.16;100.00
18900;BME280;9582;52.018;6.306;2023-12-22T12:18:21;100283.25;;;8.28;100.00
18900;BME280;9582;52.018;6.306;2023-12-22T12:20:50;100270.72;;;8.36;100.00
18900;BME280;9582;52.018;6.306;2023-12-22T12:23:16;100234.72;;;8.46;100.00
18900;BME280;9582;52.018;6.306;2023-12-22T12:25:43;100305.69;;;8.51;100.00
18900;BME280;9582;52.018;6.306;2023-12-22T12:28:10;100389.84;;;8.53;100.00
18900;BME280;9582;52.018;6.306;2023-12-22T12:30:38;100588.56;;;8.58;100.00
18900;BME280;9582;52.018;6.306;2023-12-22T12:33:09;101065.38;;;8.61;100.00
18900;BME280;9582;52.018;6.306;2023-12-22T12:35:37;100414.59;;;8.63;100.00
18900;BME280;9582;52.018;6.306;2023-12-22T12:38:06;100276.41;;;8.64;100.00
18900;BME280;9582;52.018;6.306;2023-12-22T12:40:33;100276.22;;;8.69;100.00
18900;BME280;9582;52.018;6.306;2023-12-22T12:43:01;100271.63;;;8.74;100.00
18900;BME280;9582;52.018;6.306;2023-12-22T12:45:28;100282.75;;;8.78;100.00
18900;BME280;9582;52.018;6.306;2023-12-22T12:47:55;100287.13;;;8.77;100.00
18900;BME280;9582;52.018;6.306;2023-12-22T12:50:22;100307.34;;;8.72;100.00
18900;BME280;9582;52.018;6.306;2023-12-22T12:52:49;100299.59;;;8.70;100.00
18900;BME280;9582;52.018;6.306;2023-12-22T12:55:18;100294.59;;;8.66;100.00
18900;BME280;9582;52.018;6.306;2023-12-22T12:57:48;100288.31;;;8.70;100.00
18900;BME280;9582;52.018;6.306;2023-12-22T13:00:15;100299.44;;;8.74;100.00
18900;BME280;9582;52.018;6.306;2023-12-22T13:02:42;100280.34;;;8.73;100.00